Ciudad Victoria Airport, Mexico

8:20 AM CST on February 10, 2016 (GMT -0600)
Ciudad Victoria | | Change Station
CLOSE
Current Station
Airport
Location: Ciudad Victoria,
Elevation: 781 ft
Nearby Weather Stations

Elev 781 ft 23.70 °N, 98.96 °W | Updated 37 minutes ago

Partly Cloudy
Partly Cloudy
37 °F
Feels Like 37 °F
N
2
Wind Variable Wind from ESE

Today
High -- | Low -- °F
--% Chance of Precip.
Yesterday
High -- | Low -- °F
Precip. -- in
Pressure 30.39 in
Visibility 10.0 miles
Clouds Few 3000 ft
Dew Point 34 °F
Humidity 87%
Rainfall 0.00 in
Snow Depth Not available.
7:12 AM 6:28 PM
Waxing Crescent, 5% visible
METAR MMCV 101343Z 11002KT 10SM FEW030 03/01 A3039 RMK 8/500
Pressure 30.39 in
Visibility 10.0 miles
Clouds Few 3000 ft
Dew Point 34 °F
Humidity 87%
Rainfall 0.00 in
Snow Depth Not available.
7:12 AM 6:28 PM
Waxing Crescent, 5% visible
METAR MMCV 101343Z 11002KT 10SM FEW030 03/01 A3039 RMK 8/500

10-Day Weather Forecast

No radar image for this location.
×

Almanac

Astronomy

Feb. 10, 2016 Rise Set
Actual Time
Civil Twilight
Nautical Twilight
Astronomical Twilight
Moon
Length of Visible Light
Length of Day
Tomorrow will be .
, % of the Moon is Illuminated

Today's Extremes

Country Highs Country Lows

Community

WunderPhotos

Upload Photos

1,891,850 photos uploaded!

WunderBlog® & News

Nearby

Air Quality

  Air Quality AQ Index Pollutant
Not available.

Snow Depth

Station Depth Elevation

Earthquake Activity

City Distance Mag. Time & Date
Minimum magnitude displayed is 2.5.

Coastal Water Temperatures

Place Temperature

Stations

Nearby Weather Stations

Station Location Temp. Windchill Dew Point Humidity Wind Precip. Elev Updated Type